Time;durP1;ratioP1;P1;durP2;ratioP2;P2;SDS_P1;SDS_P2;PMS_P1;PMS_P2;Temp;Humidity;BMP_temperature;BMP_pressure;BME280_temperature;BME280_humidity;BME280_pressure;Samples;Min_cycle;Max_cycle;Signal;HPM_P1;HPM_P2
2022/10/14 00:00:09;;;;;;;3.20;1.15;;;17.60;51.50;;;;;;4972361;28;20202;-40
2022/10/14 00:02:40;;;;;;;3.67;1.40;;;17.60;51.50;;;;;;4970510;28;20576;-37
2022/10/14 00:05:13;;;;;;;2.38;1.08;;;17.60;51.40;;;;;;4966120;28;20231;-39
2022/10/14 00:07:44;;;;;;;3.53;1.25;;;17.60;51.40;;;;;;4952877;28;20241;-38
2022/10/14 00:10:14;;;;;;;2.33;1.50;;;17.70;51.50;;;;;;4952860;28;20358;-36
2022/10/14 00:12:46;;;;;;;1.48;1.08;;;17.70;51.40;;;;;;4951886;28;20203;-36
2022/10/14 00:15:17;;;;;;;2.45;1.20;;;17.70;51.40;;;;;;4952613;28;20219;-40
2022/10/14 00:17:47;;;;;;;2.67;1.33;;;17.70;51.30;;;;;;4958029;28;20207;-39
2022/10/14 00:20:20;;;;;;;3.50;1.40;;;17.70;51.40;;;;;;4972048;28;20659;-37
2022/10/14 00:22:51;;;;;;;3.75;1.23;;;17.70;51.40;;;;;;4971729;28;20209;-40
2022/10/14 00:25:22;;;;;;;2.25;1.10;;;17.80;51.50;;;;;;4965266;28;20721;-37
2022/10/14 00:27:52;;;;;;;2.50;1.10;;;17.80;51.50;;;;;;4954426;28;20297;-37
2022/10/14 00:30:23;;;;;;;4.60;1.50;;;17.80;51.50;;;;;;4971205;28;20233;-36
2022/10/14 00:32:54;;;;;;;3.55;1.30;;;17.80;51.50;;;;;;4971405;28;20206;-39
2022/10/14 00:35:26;;;;;;;1.73;1.10;;;17.80;51.30;;;;;;4971449;28;20241;-40
2022/10/14 00:37:57;;;;;;;2.50;1.20;;;17.80;51.30;;;;;;4971383;28;20206;-39
2022/10/14 00:40:29;;;;;;;1.63;1.08;;;17.90;51.30;;;;;;4971244;28;20194;-38
2022/10/14 00:42:59;;;;;;;1.70;1.02;;;17.90;51.30;;;;;;4971669;28;20576;-38
2022/10/14 00:45:30;;;;;;;2.30;1.20;;;17.90;51.20;;;;;;4971128;28;20222;-36
2022/10/14 00:48:01;;;;;;;2.55;1.10;;;17.90;51.20;;;;;;4971133;28;20226;-37
2022/10/14 00:50:33;;;;;;;4.03;1.48;;;17.90;51.10;;;;;;4962495;28;20198;-40
2022/10/14 00:53:05;;;;;;;2.58;1.20;;;17.90;51.10;;;;;;4959426;28;20202;-39
2022/10/14 00:55:36;;;;;;;3.75;1.35;;;17.90;51.20;;;;;;4971581;28;20218;-37
2022/10/14 00:58:08;;;;;;;1.67;0.90;;;17.90;51.10;;;;;;4966996;28;20206;-40
2022/10/14 01:00:39;;;;;;;1.60;0.93;;;18.00;51.10;;;;;;4971673;28;20702;-37
2022/10/14 01:03:19;;;;;;;2.35;0.88;;;18.00;51.10;;;;;;4970826;28;20217;-37
2022/10/14 01:06:02;;;;;;;2.17;1.00;;;18.00;51.70;;;;;;4965177;28;20218;-37
2022/10/14 01:08:38;;;;;;;1.95;1.00;;;18.00;51.00;;;;;;4966427;28;20709;-37
2022/10/14 01:11:17;;;;;;;3.03;1.40;;;18.00;51.00;;;;;;4952057;28;20202;-37
2022/10/14 01:13:57;;;;;;;3.10;1.05;;;18.00;51.00;;;;;;4954009;28;20203;-37
2022/10/14 01:16:35;;;;;;;2.53;0.95;;;18.00;51.50;;;;;;4966147;28;20675;-36
2022/10/14 01:19:17;;;;;;;1.38;0.80;;;18.10;50.90;;;;;;4959414;28;20202;-36
2022/10/14 01:21:53;;;;;;;3.92;1.33;;;18.10;50.90;;;;;;4969061;28;20198;-37
2022/10/14 01:24:43;;;;;;;4.28;1.33;;;18.10;50.90;;;;;;4969060;28;20596;-36
2022/10/14 01:27:50;;;;;;;2.45;0.95;;;18.10;50.90;;;;;;4972936;28;20225;-36
2022/10/14 01:30:25;;;;;;;2.55;0.93;;;18.10;50.90;;;;;;4953377;28;20203;-38
2022/10/14 01:33:09;;;;;;;2.40;1.20;;;18.10;50.80;;;;;;4988147;28;20771;-37
2022/10/14 01:35:58;;;;;;;3.65;1.20;;;18.10;50.90;;;;;;4981685;28;20237;-37
2022/10/14 01:38:33;;;;;;;3.03;0.98;;;18.10;50.90;;;;;;4963148;28;20229;-37
2022/10/14 01:41:09;;;;;;;1.85;1.17;;;18.20;50.90;;;;;;4966041;28;20201;-36
2022/10/14 01:43:42;;;;;;;2.28;0.95;;;18.20;50.80;;;;;;4970165;28;20189;-38
2022/10/14 01:46:15;;;;;;;2.00;1.05;;;18.20;50.80;;;;;;4972229;28;20210;-36
2022/10/14 01:48:50;;;;;;;3.95;1.00;;;18.20;50.80;;;;;;4970975;28;20223;-36
2022/10/14 01:51:24;;;;;;;2.90;1.27;;;18.20;50.70;;;;;;4968854;28;20198;-37
2022/10/14 01:53:59;;;;;;;2.97;1.10;;;18.30;50.70;;;;;;4972469;28;20215;-41
2022/10/14 01:56:32;;;;;;;1.90;1.02;;;18.30;50.70;;;;;;4965919;28;20228;-37
2022/10/14 01:59:05;;;;;;;2.00;1.00;;;18.30;50.60;;;;;;4973724;28;20676;-39
2022/10/14 02:01:37;;;;;;;3.33;1.35;;;18.30;50.50;;;;;;4959060;28;20206;-40
2022/10/14 02:04:17;;;;;;;2.50;0.90;;;18.40;50.60;;;;;;4974311;28;20739;-36
2022/10/14 02:06:54;;;;;;;2.83;1.00;;;18.30;50.50;;;;;;4974177;28;20224;-37
2022/10/14 02:09:32;;;;;;;4.05;1.08;;;18.40;50.50;;;;;;4964465;28;20229;-36
2022/10/14 02:12:14;;;;;;;2.63;1.20;;;18.40;50.40;;;;;;4974019;28;20205;-37
2022/10/14 02:14:53;;;;;;;2.55;0.95;;;18.40;50.40;;;;;;4972748;28;20704;-37
2022/10/14 02:17:31;;;;;;;2.00;1.02;;;18.50;51.00;;;;;;4967975;28;20213;-36
2022/10/14 02:20:09;;;;;;;1.95;1.00;;;18.40;50.30;;;;;;4973494;28;20202;-37
2022/10/14 02:22:44;;;;;;;1.88;1.23;;;18.50;50.30;;;;;;4973356;28;20657;-36
2022/10/14 02:25:20;;;;;;;1.92;1.10;;;18.50;50.30;;;;;;4968543;28;20681;-36
2022/10/14 02:27:53;;;;;;;3.47;1.08;;;18.50;50.20;;;;;;4953441;28;20202;-36
2022/10/14 02:30:24;;;;;;;3.70;1.17;;;18.60;50.40;;;;;;4968149;28;20229;-37
2022/10/14 02:33:00;;;;;;;2.75;1.10;;;18.60;50.10;;;;;;4973531;28;20539;-36
2022/10/14 02:35:33;;;;;;;2.50;1.30;;;18.60;50.00;;;;;;4969631;28;20217;-36
2022/10/14 02:38:06;;;;;;;2.35;0.77;;;18.60;50.00;;;;;;4972618;28;20225;-36
2022/10/14 02:40:42;;;;;;;3.75;1.25;;;18.70;49.90;;;;;;4955733;28;20203;-36
2022/10/14 02:43:14;;;;;;;3.83;1.25;;;18.70;49.80;;;;;;4954889;28;20693;-37
2022/10/14 02:45:45;;;;;;;7.53;1.58;;;18.70;49.80;;;;;;4953783;28;20223;-36
2022/10/14 02:48:18;;;;;;;1.83;1.00;;;18.70;49.80;;;;;;4954414;28;20203;-37
2022/10/14 02:50:49;;;;;;;2.35;1.02;;;18.80;49.80;;;;;;4954781;28;20206;-36
2022/10/14 02:53:20;;;;;;;2.80;1.33;;;18.80;49.80;;;;;;4953532;28;20206;-36
2022/10/14 02:55:51;;;;;;;3.40;1.35;;;18.80;49.80;;;;;;4966565;28;20225;-36
2022/10/14 02:58:21;;;;;;;2.55;0.90;;;18.80;49.70;;;;;;4953540;28;20202;-36
2022/10/14 03:00:52;;;;;;;2.53;1.33;;;18.90;49.60;;;;;;4969989;28;20655;-37
2022/10/14 03:03:25;;;;;;;3.33;1.23;;;18.90;49.60;;;;;;4973075;28;20198;-37
2022/10/14 03:05:56;;;;;;;2.40;1.10;;;18.90;49.40;;;;;;4961095;28;20226;-37
2022/10/14 03:08:26;;;;;;;1.83;0.98;;;18.90;49.30;;;;;;4959127;28;20277;-36
2022/10/14 03:10:57;;;;;;;2.40;0.90;;;18.90;49.20;;;;;;4972893;28;20252;-36
2022/10/14 03:13:28;;;;;;;2.38;1.20;;;19.00;49.20;;;;;;4966164;28;20213;-37
2022/10/14 03:15:59;;;;;;;4.20;1.30;;;19.00;49.20;;;;;;4972245;28;20202;-37
2022/10/14 03:18:31;;;;;;;2.95;1.25;;;19.00;49.10;;;;;;4962518;28;20202;-37
2022/10/14 03:21:02;;;;;;;3.00;1.00;;;19.00;49.10;;;;;;4969857;28;20600;-36
2022/10/14 03:23:33;;;;;;;3.38;1.35;;;19.10;49.20;;;;;;4974983;28;20201;-38
2022/10/14 03:26:04;;;;;;;4.15;1.20;;;19.10;49.20;;;;;;4971699;28;20198;-36
2022/10/14 03:28:34;;;;;;;3.10;0.90;;;19.10;49.10;;;;;;4972661;28;20201;-35
2022/10/14 03:31:05;;;;;;;3.38;1.00;;;19.10;49.60;;;;;;4972521;28;20194;-37
2022/10/14 03:33:38;;;;;;;1.33;0.90;;;19.20;48.90;;;;;;4971997;28;20202;-37
2022/10/14 03:36:09;;;;;;;2.00;1.08;;;19.20;48.90;;;;;;4956343;28;20675;-36
2022/10/14 03:38:39;;;;;;;4.88;1.23;;;19.20;48.80;;;;;;4962009;28;20199;-38
2022/10/14 03:41:10;;;;;;;2.10;1.05;;;19.30;48.70;;;;;;4952965;28;20683;-36
2022/10/14 03:43:41;;;;;;;3.92;1.55;;;19.30;48.70;;;;;;4953532;28;20199;-36
2022/10/14 03:46:11;;;;;;;2.17;1.20;;;19.30;48.50;;;;;;4953346;28;20214;-37
2022/10/14 03:48:44;;;;;;;2.75;1.17;;;19.30;48.50;;;;;;4965844;28;20202;-37
2022/10/14 03:51:15;;;;;;;2.03;1.00;;;19.40;48.50;;;;;;4987008;28;20201;-38
2022/10/14 03:53:45;;;;;;;4.80;1.13;;;19.40;48.40;;;;;;4992369;28;20289;-38
2022/10/14 03:56:16;;;;;;;3.80;1.27;;;19.40;48.50;;;;;;4966864;28;20210;-37
2022/10/14 03:58:47;;;;;;;3.25;1.13;;;19.40;48.50;;;;;;4972672;28;20202;-37
2022/10/14 04:01:18;;;;;;;1.85;1.02;;;19.40;48.40;;;;;;4955857;28;20198;-37
2022/10/14 04:03:50;;;;;;;1.60;0.95;;;19.50;48.40;;;;;;4952275;28;20209;-37
2022/10/14 04:06:21;;;;;;;2.35;1.02;;;19.50;48.30;;;;;;4953020;28;20190;-38
2022/10/14 04:08:52;;;;;;;1.95;0.90;;;19.50;48.10;;;;;;4952458;28;20213;-38
2022/10/14 04:11:23;;;;;;;2.30;0.90;;;19.50;48.30;;;;;;4969136;28;20785;-36
2022/10/14 04:13:53;;;;;;;4.95;1.33;;;19.50;48.30;;;;;;4971439;28;20232;-37
2022/10/14 04:16:24;;;;;;;2.08;1.00;;;19.60;48.20;;;;;;4972288;28;20195;-37
2022/10/14 04:18:57;;;;;;;6.47;1.10;;;19.60;48.00;;;;;;4972145;28;20206;-38
2022/10/14 04:21:28;;;;;;;2.17;0.90;;;19.60;48.20;;;;;;4972098;28;20664;-38
2022/10/14 04:23:58;;;;;;;2.47;1.00;;;19.60;47.80;;;;;;4972130;28;20222;-38
2022/10/14 04:26:29;;;;;;;3.88;1.25;;;19.60;47.70;;;;;;4971364;28;20210;-37
2022/10/14 04:29:00;;;;;;;1.88;1.00;;;19.60;47.70;;;;;;4958091;28;20229;-37
2022/10/14 04:31:30;;;;;;;3.80;1.10;;;19.60;47.70;;;;;;4968602;28;20207;-37
2022/10/14 04:34:03;;;;;;;3.25;1.20;;;19.70;47.60;;;;;;4956924;28;20861;-39
2022/10/14 04:36:34;;;;;;;3.35;1.15;;;19.70;47.60;;;;;;4951670;28;20199;-37
2022/10/14 04:39:05;;;;;;;3.97;0.98;;;19.70;47.50;;;;;;4958539;28;20194;-37
2022/10/14 04:41:35;;;;;;;1.75;1.00;;;19.70;47.40;;;;;;4955011;28;20205;-38
2022/10/14 04:44:06;;;;;;;3.60;1.05;;;19.70;47.40;;;;;;4952125;28;20565;-38
2022/10/14 04:46:37;;;;;;;2.90;1.00;;;19.70;47.30;;;;;;4952201;28;20213;-38
2022/10/14 04:49:11;;;;;;;2.13;0.90;;;19.70;47.30;;;;;;4967025;28;20226;-37
2022/10/14 04:51:42;;;;;;;2.88;0.90;;;19.70;47.40;;;;;;4961596;28;20194;-40
2022/10/14 04:54:12;;;;;;;2.17;1.00;;;19.60;47.30;;;;;;4966867;28;20218;-37
2022/10/14 04:56:43;;;;;;;1.95;1.00;;;19.60;47.20;;;;;;4969377;28;20194;-39
2022/10/14 04:59:14;;;;;;;2.97;1.20;;;19.60;47.20;;;;;;4971223;28;20688;-37
2022/10/14 05:01:45;;;;;;;1.90;0.90;;;19.60;47.20;;;;;;4974256;28;20194;-37
2022/10/14 05:04:18;;;;;;;2.00;1.05;;;19.60;47.20;;;;;;4958550;28;20238;-37
2022/10/14 05:06:48;;;;;;;4.95;1.40;;;19.60;47.20;;;;;;4973290;28;20198;-38
2022/10/14 05:09:19;;;;;;;2.90;1.10;;;19.60;47.20;;;;;;4974959;28;20237;-38
2022/10/14 05:11:50;;;;;;;2.38;1.30;;;19.60;47.10;;;;;;4974473;28;20205;-37
2022/10/14 05:14:21;;;;;;;3.33;1.23;;;19.60;47.10;;;;;;4974215;28;20213;-37
2022/10/14 05:16:51;;;;;;;3.40;0.90;;;19.60;47.10;;;;;;4969420;28;20241;-37
2022/10/14 05:19:24;;;;;;;4.60;1.00;;;19.60;47.10;;;;;;4974120;28;21020;-40
2022/10/14 05:21:55;;;;;;;2.20;1.08;;;19.60;47.10;;;;;;4966338;28;20190;-39
2022/10/14 05:24:25;;;;;;;4.13;1.10;;;19.50;47.00;;;;;;4977947;28;20221;-37
2022/10/14 05:26:56;;;;;;;2.50;1.40;;;19.50;47.10;;;;;;4974848;28;20216;-39
2022/10/14 05:29:27;;;;;;;3.28;1.13;;;19.50;47.10;;;;;;4974349;28;20222;-37
2022/10/14 05:31:57;;;;;;;2.78;0.82;;;19.50;47.10;;;;;;4974791;28;20202;-37
2022/10/14 05:34:30;;;;;;;4.30;1.05;;;19.50;47.20;;;;;;4967436;28;20578;-42
2022/10/14 05:37:01;;;;;;;2.15;0.80;;;19.50;47.30;;;;;;4955853;28;20206;-39
2022/10/14 05:39:31;;;;;;;1.40;0.73;;;19.50;47.40;;;;;;4956080;28;20209;-37
2022/10/14 05:42:02;;;;;;;2.65;1.10;;;19.50;47.40;;;;;;4954913;28;20195;-38
2022/10/14 05:44:33;;;;;;;2.33;0.90;;;19.50;47.40;;;;;;4955188;28;20225;-41
2022/10/14 05:47:04;;;;;;;1.95;1.20;;;19.50;47.40;;;;;;4955411;28;20211;-37
2022/10/14 05:49:36;;;;;;;1.92;1.00;;;19.50;47.40;;;;;;4955993;28;20222;-38
2022/10/14 05:52:07;;;;;;;1.50;1.00;;;19.50;47.30;;;;;;4956190;28;20199;-41
2022/10/14 05:54:38;;;;;;;2.17;0.82;;;19.40;47.30;;;;;;4955272;28;20218;-37
2022/10/14 05:57:08;;;;;;;3.58;1.25;;;19.40;47.30;;;;;;4969766;28;20202;-37
2022/10/14 05:59:39;;;;;;;2.67;1.00;;;19.40;47.30;;;;;;4973942;28;20213;-37
2022/10/14 06:02:11;;;;;;;3.38;1.00;;;19.40;47.30;;;;;;4974148;28;20195;-37
2022/10/14 06:04:44;;;;;;;2.05;0.93;;;19.40;47.40;;;;;;4973614;28;20226;-37
2022/10/14 06:07:14;;;;;;;1.63;0.90;;;19.40;47.40;;;;;;4973428;28;20562;-37
2022/10/14 06:09:45;;;;;;;2.35;1.02;;;19.30;47.40;;;;;;4974268;28;20229;-37
2022/10/14 06:12:16;;;;;;;2.70;1.02;;;19.30;47.40;;;;;;4955915;28;20195;-40
2022/10/14 06:14:47;;;;;;;3.03;0.90;;;19.30;47.50;;;;;;4954281;28;20218;-38
2022/10/14 06:17:17;;;;;;;1.65;0.73;;;19.30;47.50;;;;;;4954544;28;20564;-38
2022/10/14 06:19:50;;;;;;;3.00;1.10;;;19.30;47.50;;;;;;4954807;28;20210;-37
2022/10/14 06:22:20;;;;;;;2.30;1.10;;;19.20;47.40;;;;;;4954799;28;20191;-37
2022/10/14 06:24:51;;;;;;;1.38;0.82;;;19.20;47.40;;;;;;4954583;28;20223;-38
2022/10/14 06:27:22;;;;;;;1.70;0.70;;;19.20;47.40;;;;;;4970075;28;20206;-40
2022/10/14 06:29:53;;;;;;;1.58;0.80;;;19.20;47.50;;;;;;4973538;28;20673;-39
2022/10/14 06:32:23;;;;;;;1.40;0.80;;;19.20;47.50;;;;;;4960356;28;20199;-37
2022/10/14 06:34:56;;;;;;;2.63;0.90;;;19.10;47.60;;;;;;4954819;28;20585;-41
2022/10/14 06:37:27;;;;;;;2.22;1.20;;;19.10;47.50;;;;;;4954002;28;20250;-38
2022/10/14 06:39:58;;;;;;;2.63;1.00;;;19.10;47.60;;;;;;4957368;28;20197;-37
2022/10/14 06:42:29;;;;;;;1.33;0.82;;;19.10;47.60;;;;;;4965418;28;20204;-38
2022/10/14 06:45:00;;;;;;;3.55;1.20;;;19.10;47.60;;;;;;4972716;28;20225;-37
2022/10/14 06:47:30;;;;;;;2.40;1.10;;;19.00;47.60;;;;;;4972466;28;20202;-37
2022/10/14 06:50:03;;;;;;;2.97;1.30;;;19.00;47.60;;;;;;4972650;28;20698;-38
2022/10/14 06:52:33;;;;;;;2.17;1.13;;;19.00;47.60;;;;;;4973270;28;20202;-37
2022/10/14 06:55:04;;;;;;;3.45;1.23;;;19.00;47.60;;;;;;4972588;28;20222;-37
2022/10/14 06:57:35;;;;;;;2.50;1.30;;;19.00;47.60;;;;;;4972609;28;20202;-38
2022/10/14 07:00:06;;;;;;;2.47;1.10;;;19.00;47.60;;;;;;4964707;28;20209;-37
2022/10/14 07:02:38;;;;;;;1.95;1.00;;;18.90;47.60;;;;;;4972065;28;20221;-37
2022/10/14 07:05:11;;;;;;;2.00;1.10;;;18.90;47.70;;;;;;4982223;28;20221;-37
2022/10/14 07:07:42;;;;;;;1.30;0.80;;;18.90;47.70;;;;;;4991745;28;20194;-37
2022/10/14 07:10:13;;;;;;;1.95;1.02;;;18.90;47.70;;;;;;4975708;28;20214;-38
2022/10/14 07:12:44;;;;;;;1.58;0.98;;;18.90;47.80;;;;;;4972576;28;20659;-37
2022/10/14 07:15:14;;;;;;;2.20;0.80;;;18.90;47.80;;;;;;4974703;28;20222;-38
2022/10/14 07:17:45;;;;;;;2.10;1.08;;;18.90;47.90;;;;;;4982122;28;20202;-37
2022/10/14 07:20:18;;;;;;;1.25;0.80;;;18.80;47.90;;;;;;4972187;28;20696;-42
2022/10/14 07:22:49;;;;;;;1.38;0.70;;;18.90;47.90;;;;;;4971160;28;20195;-37
2022/10/14 07:25:19;;;;;;;3.00;1.10;;;18.80;47.90;;;;;;4972286;28;20224;-37
2022/10/14 07:27:52;;;;;;;2.88;1.08;;;18.80;47.90;;;;;;4972095;28;20289;-39
2022/10/14 07:30:23;;;;;;;2.08;0.80;;;18.80;47.90;;;;;;4971868;28;20226;-37
2022/10/14 07:32:54;;;;;;;2.88;1.02;;;18.80;47.90;;;;;;4971644;28;20643;-38
2022/10/14 07:35:26;;;;;;;1.13;0.82;;;18.80;48.00;;;;;;4972188;28;20228;-38
2022/10/14 07:37:57;;;;;;;2.28;0.93;;;18.80;48.00;;;;;;4971733;28;20201;-37
2022/10/14 07:40:28;;;;;;;1.20;0.90;;;18.70;47.90;;;;;;4972160;28;21242;-37
2022/10/14 07:42:58;;;;;;;1.80;0.80;;;18.70;48.00;;;;;;4972188;28;20206;-37
2022/10/14 07:45:34;;;;;;;1.67;0.90;;;18.70;48.00;;;;;;4972034;28;20214;-39
2022/10/14 07:48:05;;;;;;;1.65;0.80;;;18.70;48.00;;;;;;4971748;28;20301;-37
2022/10/14 07:50:37;;;;;;;1.60;0.80;;;18.70;48.10;;;;;;4971897;28;20229;-37
2022/10/14 07:53:08;;;;;;;1.88;1.05;;;18.70;48.00;;;;;;4976742;28;20197;-37
2022/10/14 07:55:50;;;;;;;2.60;0.90;;;18.70;48.10;;;;;;4988824;28;20225;-38
2022/10/14 07:58:23;;;;;;;2.55;1.00;;;18.60;48.00;;;;;;4971702;28;20614;-41
2022/10/14 08:00:54;;;;;;;1.27;0.70;;;18.70;48.10;;;;;;4971740;28;20206;-37
2022/10/14 08:03:25;;;;;;;1.48;0.80;;;18.60;48.10;;;;;;4971315;28;20205;-38
2022/10/14 08:06:04;;;;;;;1.65;0.80;;;18.60;48.10;;;;;;4971302;28;20228;-38
2022/10/14 08:08:34;;;;;;;1.33;0.75;;;18.60;48.10;;;;;;4971203;28;20662;-37
2022/10/14 08:11:06;;;;;;;1.20;0.80;;;18.60;48.10;;;;;;4971216;28;20261;-41
2022/10/14 08:13:37;;;;;;;1.10;0.90;;;18.60;48.20;;;;;;4971429;28;20202;-38
2022/10/14 08:16:16;;;;;;;1.85;0.80;;;18.60;48.20;;;;;;4971434;28;20205;-38
2022/10/14 08:18:47;;;;;;;1.17;0.63;;;18.60;48.20;;;;;;4971141;28;20208;-38
2022/10/14 08:21:21;;;;;;;1.55;1.00;;;18.50;48.20;;;;;;4971379;28;20194;-37
2022/10/14 08:23:51;;;;;;;1.23;0.75;;;18.50;48.20;;;;;;4971482;28;20198;-37
2022/10/14 08:26:25;;;;;;;1.52;0.80;;;18.50;48.10;;;;;;4971334;28;20691;-38
2022/10/14 08:28:55;;;;;;;1.48;0.70;;;18.50;48.20;;;;;;4971234;28;20206;-40
2022/10/14 08:31:26;;;;;;;1.92;0.65;;;18.50;48.20;;;;;;4971010;28;20226;-37
2022/10/14 08:33:57;;;;;;;1.33;0.60;;;18.50;48.20;;;;;;4970842;28;20213;-40
2022/10/14 08:36:31;;;;;;;1.02;0.82;;;18.40;48.20;;;;;;4971153;28;20670;-37
2022/10/14 08:39:03;;;;;;;1.75;0.60;;;18.40;48.20;;;;;;4971036;28;20214;-38
2022/10/14 08:42:02;;;;;;;1.67;0.80;;;18.40;48.20;;;;;;4970936;28;20209;-37
2022/10/14 08:44:42;;;;;;;1.70;0.90;;;18.40;48.30;;;;;;4967500;28;20218;-39
2022/10/14 08:47:16;;;;;;;1.45;0.82;;;18.40;48.30;;;;;;4966176;28;20674;-37
2022/10/14 08:49:55;;;;;;;1.95;0.90;;;18.40;48.30;;;;;;4972083;28;20202;-37
2022/10/14 08:52:32;;;;;;;1.02;0.80;;;18.30;48.30;;;;;;4962364;28;20234;-38
2022/10/14 08:55:11;;;;;;;1.80;1.00;;;18.30;48.30;;;;;;4953862;28;20685;-38
2022/10/14 08:57:51;;;;;;;1.00;0.90;;;18.30;48.40;;;;;;4971641;28;20688;-37
2022/10/14 09:00:23;;;;;;;1.63;0.80;;;18.30;48.30;;;;;;4971635;28;20205;-38
2022/10/14 09:02:54;;;;;;;1.05;0.77;;;18.30;48.40;;;;;;4969463;28;20191;-39
2022/10/14 09:05:27;;;;;;;2.75;1.10;;;18.30;48.40;;;;;;4963471;28;20215;-38
2022/10/14 09:08:01;;;;;;;0.80;0.60;;;18.20;48.40;;;;;;4954460;28;20195;-39
2022/10/14 09:10:36;;;;;;;1.15;0.63;;;18.20;48.40;;;;;;4973970;28;20292;-41
2022/10/14 09:13:16;;;;;;;1.33;0.70;;;18.20;48.50;;;;;;4971997;28;20205;-38
2022/10/14 09:15:51;;;;;;;1.13;0.75;;;18.10;48.50;;;;;;4970938;28;20218;-37
2022/10/14 09:18:30;;;;;;;2.05;0.80;;;18.10;48.50;;;;;;4953928;28;20210;-38
2022/10/14 09:21:02;;;;;;;1.27;0.80;;;18.10;48.60;;;;;;4952277;28;20206;-37
2022/10/14 09:23:35;;;;;;;1.77;0.90;;;18.10;48.60;;;;;;4952250;28;20191;-40
2022/10/14 09:26:11;;;;;;;1.30;0.68;;;18.10;48.60;;;;;;4957672;28;20206;-38
2022/10/14 09:28:44;;;;;;;1.58;0.90;;;18.10;48.60;;;;;;4952073;28;20201;-37
2022/10/14 09:31:15;;;;;;;1.42;0.75;;;18.10;48.60;;;;;;4952043;28;20226;-37
2022/10/14 09:33:47;;;;;;;1.60;1.00;;;18.10;48.60;;;;;;4952019;28;20199;-37
2022/10/14 09:36:20;;;;;;;1.25;0.70;;;18.00;48.50;;;;;;4951353;28;20211;-38
2022/10/14 09:38:55;;;;;;;1.33;0.98;;;18.00;48.60;;;;;;4951495;28;20203;-37
2022/10/14 09:41:29;;;;;;;2.17;0.75;;;18.00;48.60;;;;;;4955606;28;20561;-41
2022/10/14 09:44:24;;;;;;;0.70;0.50;;;18.00;48.60;;;;;;4971435;28;20233;-38
2022/10/14 09:46:58;;;;;;;2.40;0.80;;;17.90;48.70;;;;;;4972968;28;20202;-41
2022/10/14 09:49:39;;;;;;;2.05;0.63;;;17.90;48.60;;;;;;4975232;28;20673;-37
2022/10/14 09:52:21;;;;;;;1.08;0.70;;;17.80;48.60;;;;;;4974395;28;20225;-38
2022/10/14 09:55:00;;;;;;;0.93;0.63;;;17.80;48.60;;;;;;4993001;28;20221;-39
2022/10/14 09:57:31;;;;;;;0.88;0.50;;;17.80;48.70;;;;;;4976591;28;20198;-41
2022/10/14 10:00:03;;;;;;;1.70;0.80;;;17.80;48.70;;;;;;4974534;28;20213;-39
2022/10/14 10:02:42;;;;;;;0.85;0.68;;;17.80;48.70;;;;;;4973593;28;20217;-37
2022/10/14 10:05:24;;;;;;;1.88;0.88;;;17.80;48.70;;;;;;4974143;28;20309;-40
2022/10/14 10:08:09;;;;;;;1.17;0.90;;;17.80;48.70;;;;;;4974144;28;20665;-42
2022/10/14 10:10:42;;;;;;;1.10;0.77;;;17.70;48.70;;;;;;4973640;28;20229;-40
2022/10/14 10:13:29;;;;;;;1.27;0.70;;;17.70;48.70;;;;;;4974635;28;20651;-47
2022/10/14 10:16:04;;;;;;;1.33;0.80;;;17.70;48.70;;;;;;4974583;28;20658;-37
2022/10/14 10:18:35;;;;;;;1.45;0.70;;;17.70;48.80;;;;;;4973982;28;20752;-39
2022/10/14 10:21:08;;;;;;;1.42;1.05;;;17.60;48.70;;;;;;4973976;28;20202;-39
2022/10/14 10:23:39;;;;;;;0.98;0.63;;;17.60;48.80;;;;;;4973948;28;20200;-38
2022/10/14 10:26:25;;;;;;;1.02;0.90;;;17.60;48.80;;;;;;4973793;28;20198;-39
2022/10/14 10:28:58;;;;;;;1.40;0.75;;;17.50;48.70;;;;;;4974156;28;20205;-38
2022/10/14 10:32:02;;;;;;;1.75;0.57;;;17.60;48.80;;;;;;4974680;28;20639;-42
2022/10/14 10:34:55;;;;;;;0.82;0.68;;;17.50;48.80;;;;;;4974148;28;20229;-39
2022/10/14 10:37:29;;;;;;;1.55;0.70;;;17.50;48.70;;;;;;4973951;28;20193;-39
2022/10/14 10:40:13;;;;;;;1.10;0.75;;;17.50;48.70;;;;;;4974043;28;20194;-37
2022/10/14 10:42:54;;;;;;;0.68;0.60;;;17.50;48.70;;;;;;4958968;28;20195;-38
2022/10/14 10:45:37;;;;;;;1.50;0.70;;;17.50;48.80;;;;;;4954853;28;20218;-39
2022/10/14 10:48:17;;;;;;;2.10;1.00;;;17.50;48.90;;;;;;4954354;28;20206;-38
2022/10/14 10:50:56;;;;;;;1.38;0.85;;;17.40;48.80;;;;;;4954012;28;20211;-39
2022/10/14 10:53:54;;;;;;;0.70;0.70;;;17.40;48.80;;;;;;4967682;28;20665;-37
2022/10/14 10:56:33;;;;;;;1.15;0.80;;;17.40;48.90;;;;;;4982072;28;20289;-38
2022/10/14 10:59:44;;;;;;;0.73;0.60;;;17.40;48.90;;;;;;4970377;28;20198;-40
2022/10/14 11:02:53;;;;;;;1.33;0.82;;;17.40;48.90;;;;;;4964234;28;20250;-42
2022/10/14 11:05:37;;;;;;;0.88;0.68;;;17.40;48.90;;;;;;4953119;28;20281;-40
2022/10/14 11:14:13;;;;;;;0.90;0.60;;;17.30;48.80;;;;;;4952265;28;20387;-43
2022/10/14 11:16:55;;;;;;;0.82;0.70;;;17.30;48.80;;;;;;4970408;28;20587;-37
2022/10/14 11:19:32;;;;;;;0.95;0.80;;;17.30;48.80;;;;;;4954309;28;20202;-39
2022/10/14 11:22:12;;;;;;;1.35;0.80;;;17.30;48.90;;;;;;4953987;28;20198;-38
2022/10/14 11:24:53;;;;;;;1.10;0.70;;;17.30;48.90;;;;;;4954025;28;20215;-37
2022/10/14 11:27:33;;;;;;;0.70;0.70;;;17.20;48.90;;;;;;4969526;28;20210;-37
2022/10/14 11:30:21;;;;;;;1.60;0.80;;;17.20;48.90;;;;;;4973189;28;20560;-37
2022/10/14 11:33:17;;;;;;;1.15;0.90;;;17.20;49.00;;;;;;4973584;28;20236;-46
2022/10/14 11:36:00;;;;;;;1.05;0.70;;;17.20;49.00;;;;;;4973484;28;20584;-38
2022/10/14 11:38:47;;;;;;;0.80;0.70;;;17.20;49.00;;;;;;4972132;28;20202;-39
2022/10/14 11:41:28;;;;;;;1.73;0.80;;;17.10;49.00;;;;;;4971807;28;20202;-40
2022/10/14 11:44:06;;;;;;;1.05;0.90;;;17.10;48.90;;;;;;4971742;28;20218;-37
2022/10/14 11:46:41;;;;;;;1.13;0.80;;;17.10;48.90;;;;;;4971154;28;20206;-40
2022/10/14 11:49:20;;;;;;;1.58;0.90;;;17.10;49.00;;;;;;4971242;28;20248;-39
2022/10/14 11:51:56;;;;;;;2.63;0.80;;;17.10;48.90;;;;;;4971385;28;20277;-37
2022/10/14 11:54:33;;;;;;;1.17;0.80;;;17.10;49.00;;;;;;4986911;28;20753;-40
2022/10/14 11:57:07;;;;;;;1.08;0.82;;;17.10;49.00;;;;;;4977849;28;20584;-37
2022/10/14 11:59:45;;;;;;;1.10;0.90;;;17.00;49.00;;;;;;4971600;28;20205;-38
2022/10/14 12:02:31;;;;;;;0.90;0.70;;;17.00;49.00;;;;;;4971239;28;20654;-42
2022/10/14 12:05:08;;;;;;;1.20;0.90;;;17.00;49.00;;;;;;4971426;28;20224;-39
2022/10/14 12:07:44;;;;;;;1.17;0.93;;;17.00;49.00;;;;;;4970985;28;20204;-41
2022/10/14 12:10:24;;;;;;;0.70;0.70;;;17.00;49.00;;;;;;4970860;28;20676;-39
2022/10/14 12:12:56;;;;;;;0.68;0.55;;;17.00;49.00;;;;;;4971064;28;20257;-36
2022/10/14 12:15:30;;;;;;;0.90;0.70;;;17.00;49.00;;;;;;4971282;28;20720;-40
2022/10/14 12:18:02;;;;;;;0.90;0.60;;;16.90;48.90;;;;;;4971090;28;20203;-39
2022/10/14 12:20:45;;;;;;;0.75;0.60;;;16.90;48.90;;;;;;4971657;28;20702;-43
2022/10/14 12:23:21;;;;;;;0.93;0.60;;;16.90;48.90;;;;;;4971108;28;20220;-37
2022/10/14 12:25:59;;;;;;;0.63;0.63;;;16.90;48.90;;;;;;4970548;28;20233;-37
2022/10/14 12:28:30;;;;;;;0.70;0.70;;;16.90;48.90;;;;;;4970742;28;20194;-37
2022/10/14 12:31:25;;;;;;;1.60;0.68;;;16.90;48.90;;;;;;4970783;28;20209;-37
2022/10/14 12:34:28;;;;;;;0.90;0.80;;;16.90;49.50;;;;;;4971235;28;20301;-37
2022/10/14 12:37:00;;;;;;;0.60;0.60;;;16.80;48.90;;;;;;4970845;28;20205;-37
2022/10/14 12:39:36;;;;;;;1.60;0.70;;;16.80;49.30;;;;;;4970635;28;20202;-40
2022/10/14 12:42:12;;;;;;;1.35;0.80;;;16.80;48.90;;;;;;4970927;28;20202;-39
2022/10/14 12:44:49;;;;;;;0.75;0.60;;;16.80;49.00;;;;;;4970852;28;20922;-37
2022/10/14 12:47:22;;;;;;;0.65;0.60;;;16.80;49.00;;;;;;4970251;28;20729;-44
2022/10/14 12:49:56;;;;;;;1.08;0.85;;;16.80;49.00;;;;;;4970527;28;20198;-37
2022/10/14 12:52:34;;;;;;;0.68;0.60;;;16.70;49.00;;;;;;4971295;28;20225;-37
2022/10/14 12:55:11;;;;;;;0.60;0.60;;;16.70;49.00;;;;;;4951833;28;20587;-39
2022/10/14 12:57:42;;;;;;;1.42;0.85;;;16.70;48.90;;;;;;4969115;28;20200;-38
2022/10/14 13:00:33;;;;;;;0.85;0.70;;;16.70;49.00;;;;;;4970653;28;20202;-42
2022/10/14 13:03:05;;;;;;;1.02;0.80;;;16.70;49.00;;;;;;4970681;28;20206;-37
2022/10/14 13:05:38;;;;;;;0.98;0.77;;;16.70;49.00;;;;;;4970991;28;20228;-42
2022/10/14 13:08:29;;;;;;;0.95;0.70;;;16.70;49.00;;;;;;4970899;28;20248;-41
2022/10/14 13:11:14;;;;;;;1.08;0.75;;;16.60;49.00;;;;;;4970910;28;20209;-41
2022/10/14 13:13:59;;;;;;;0.98;0.73;;;16.60;48.90;;;;;;4970128;28;20230;-42
2022/10/14 13:16:57;;;;;;;0.63;0.50;;;16.60;48.90;;;;;;4970352;28;20198;-39
2022/10/14 13:19:46;;;;;;;0.80;0.70;;;16.60;49.00;;;;;;4972471;28;20254;-42
2022/10/14 13:22:40;;;;;;;1.38;0.65;;;16.60;49.00;;;;;;4973038;28;20202;-40
2022/10/14 13:25:30;;;;;;;0.70;0.70;;;16.60;49.00;;;;;;4973694;28;20264;-39
2022/10/14 13:28:16;;;;;;;0.60;0.60;;;16.60;49.00;;;;;;4974086;28;20221;-41
2022/10/14 13:31:00;;;;;;;0.70;0.50;;;16.60;49.00;;;;;;4973688;28;20194;-43
2022/10/14 13:33:38;;;;;;;0.57;0.50;;;16.50;49.00;;;;;;4973273;28;20248;-39